Quick Links (Output Below):   Max & Min Temps   /   Climate Reports   /   Zone Forecasts
River Forecasts   /   Forestry Forecasts   /   Aviation Forecasts   /   Radars   /   Features

Terminal Aerodrome Forecast (Jonesboro)

Pick a Site:
Arkadelphia | El Dorado | Fayetteville | Fort Smith | Harrison | Highfill | Hot Springs | Jonesboro
Little Rock | Monticello | Mountain Home | Pine Bluff | Texarkana
 Forecast 

KJBR 280153Z 2802/2824 05009KT P6SM OVC060
      TEMPO 2802/2804 -SN
     FM281800 09008KT P6SM BKN050 OVC060=


 Latest METARs (Observations) 
How to Decode METARs
04Z KJBR 280353Z AUTO 06010KT 10SM OVC070 M05/M09 A3058 RMK AO2 SLP359
         T10501089
         
03Z KJBR 280253Z AUTO 05012KT 10SM OVC090 M06/M10 A3060 RMK AO2 SLP365
         T10561100 58001
         
02Z KJBR 280153Z AUTO 04010KT 10SM BKN070 OVC080 M06/M10 A3060 RMK AO2
         SLP366 T10561100
         
01Z KJBR 280053Z AUTO 05011KT 10SM BKN055 OVC065 M05/M09 A3061 RMK AO2
         SLP367 T10501094
         
00Z KJBR 272353Z AUTO 05010KT 10SM OVC050 M05/M09 A3060 RMK AO2 SLP366
         T10501094 11039 21056 50010
         
***** Today's Observations (Above) *****


23Z KJBR 272253Z AUTO 04008KT 10SM OVC075 M05/M09 A3061 RMK AO2 SLP370
         T10501094
         
22Z KJBR 272153Z AUTO 05010KT 10SM OVC090 M05/M10 A3061 RMK AO2 SLP367
         T10501100
         
21Z KJBR 272053Z AUTO 05010KT 10SM FEW024 FEW110 M04/M09 A3057 RMK AO2
         SLP356 T10441089 55012
         
20Z KJBR 271953Z AUTO 04012KT 10SM SCT025 M04/M09 A3057 RMK AO2 SLP354
         T10441089
         
19Z KJBR 271853Z AUTO 06012KT 10SM CLR M04/M10 A3060 RMK AO2 SLP364
         T10441100
         
***** Yesterday's Observations (Above) *****


Back to Main Page
http://www.srh.noaa.gov/lzk/qfcst.php

USA.gov is the U.S. government's official web portal to all federal, state and local government web resources and services.